createdAt,value
2016-10-25T00:01:00.527Z,99.99
2016-10-25T00:02:11.373Z,99.99
2016-10-25T00:03:22.191Z,99.99
2016-10-25T00:04:32.975Z,99.99
2016-10-25T00:05:43.740Z,99.99
2016-10-25T00:06:54.527Z,99.99
2016-10-25T00:08:05.387Z,99.99
2016-10-25T00:09:16.199Z,99.99
2016-10-25T00:10:27.063Z,99.99
2016-10-25T00:11:37.876Z,99.99
2016-10-25T00:12:48.647Z,99.99
2016-10-25T00:13:59.433Z,99.99
2016-10-25T00:15:10.148Z,99.99
2016-10-25T00:16:20.926Z,99.99
2016-10-25T00:17:31.728Z,99.99
2016-10-25T00:18:42.566Z,99.99
2016-10-25T00:19:53.298Z,99.99
2016-10-25T00:21:04.089Z,99.99
2016-10-25T00:22:14.876Z,99.99
2016-10-25T00:23:25.667Z,99.99
2016-10-25T00:24:36.519Z,99.99
2016-10-25T00:25:47.303Z,99.99
2016-10-25T00:26:58.167Z,99.99
2016-10-25T00:28:08.956Z,99.99
2016-10-25T00:29:19.870Z,99.99
2016-10-25T00:30:30.677Z,99.99
2016-10-25T00:31:42.189Z,99.99
2016-10-25T00:32:52.909Z,99.99
2016-10-25T00:34:03.744Z,99.99
2016-10-25T00:35:14.473Z,99.99
2016-10-25T00:36:25.195Z,99.99
2016-10-25T00:37:36.030Z,99.99
2016-10-25T00:38:47.301Z,99.99
2016-10-25T00:39:58.113Z,99.99
2016-10-25T00:41:08.881Z,99.99
2016-10-25T00:42:19.657Z,99.99
2016-10-25T00:43:30.442Z,99.99
2016-10-25T00:44:41.222Z,99.99
2016-10-25T00:45:52.059Z,99.99
2016-10-25T00:47:02.826Z,99.99
2016-10-25T00:48:13.672Z,99.99
2016-10-25T00:49:24.466Z,99.99
2016-10-25T00:50:35.264Z,99.99
2016-10-25T00:51:46.370Z,99.99
2016-10-25T00:52:57.137Z,99.99
2016-10-25T00:54:07.875Z,99.99
2016-10-25T00:55:18.656Z,99.99
2016-10-25T00:56:29.444Z,99.99
2016-10-25T00:57:40.230Z,99.99
2016-10-25T00:58:51.036Z,99.99
2016-10-25T01:00:01.820Z,99.99
2016-10-25T01:01:12.676Z,99.99
2016-10-25T01:02:23.479Z,99.99
2016-10-25T01:03:34.768Z,99.99
2016-10-25T01:04:45.571Z,99.99
2016-10-25T01:05:56.293Z,99.99
2016-10-25T01:07:07.550Z,99.99
2016-10-25T01:08:18.409Z,99.99
2016-10-25T01:09:29.219Z,99.99
2016-10-25T01:10:40.045Z,99.99
2016-10-25T01:11:50.922Z,99.99
2016-10-25T01:13:01.748Z,99.99
2016-10-25T01:14:12.501Z,99.99
2016-10-25T01:15:23.283Z,99.99
2016-10-25T01:16:34.154Z,99.99
2016-10-25T01:17:44.968Z,99.99
2016-10-25T01:18:55.844Z,99.99
2016-10-25T01:20:06.672Z,99.99
2016-10-25T01:21:17.462Z,99.99
2016-10-25T01:22:28.282Z,99.99
2016-10-25T01:23:39.193Z,99.99
2016-10-25T01:24:50.008Z,99.99
2016-10-25T01:26:00.751Z,99.99
2016-10-25T01:27:11.542Z,99.99
2016-10-25T01:28:22.436Z,99.99
2016-10-25T01:29:33.239Z,99.99
2016-10-25T01:30:44.136Z,99.99
2016-10-25T01:31:54.989Z,99.99
2016-10-25T01:33:05.767Z,99.99
2016-10-25T01:34:16.508Z,99.99
2016-10-25T01:35:27.366Z,99.99
2016-10-25T01:36:38.128Z,99.99
2016-10-25T01:37:48.891Z,99.99
2016-10-25T01:38:59.704Z,99.99
2016-10-25T01:40:10.482Z,99.99
2016-10-25T01:41:21.827Z,99.99
2016-10-25T01:42:32.610Z,99.99
2016-10-25T01:43:43.423Z,99.99
2016-10-25T01:44:54.310Z,99.99
2016-10-25T01:46:05.128Z,99.99
2016-10-25T01:47:15.982Z,99.99
2016-10-25T01:48:27.313Z,99.99
2016-10-25T01:49:38.114Z,99.99
2016-10-25T01:50:48.844Z,99.99
2016-10-25T01:51:59.926Z,99.99
2016-10-25T01:53:10.917Z,99.99
2016-10-25T01:54:21.681Z,99.99
2016-10-25T01:55:32.501Z,99.99
2016-10-25T01:56:43.314Z,99.99
2016-10-25T01:57:54.123Z,99.99
2016-10-25T01:59:04.880Z,99.99
2016-10-25T02:00:15.665Z,99.99
2016-10-25T02:01:26.482Z,99.99
2016-10-25T02:02:37.323Z,99.99
2016-10-25T02:03:48.092Z,99.99
2016-10-25T02:04:58.873Z,99.99
2016-10-25T02:06:10.173Z,99.99
2016-10-25T02:07:20.991Z,99.99
2016-10-25T02:08:31.832Z,99.99
2016-10-25T02:09:42.726Z,99.99
2016-10-25T02:10:53.525Z,99.99
2016-10-25T02:12:04.377Z,99.99
2016-10-25T02:13:15.268Z,99.99
2016-10-25T02:14:26.088Z,99.99
2016-10-25T02:15:37.437Z,99.99
2016-10-25T02:16:48.199Z,99.99
2016-10-25T02:17:59.006Z,99.99
2016-10-25T02:19:09.872Z,99.99
2016-10-25T02:20:20.978Z,99.99
2016-10-25T02:21:31.791Z,99.99
2016-10-25T02:22:42.697Z,99.99
2016-10-25T02:23:53.564Z,99.99
2016-10-25T02:25:04.372Z,99.99
2016-10-25T02:26:15.191Z,99.99
2016-10-25T02:27:26.214Z,99.99
2016-10-25T02:28:37.043Z,99.99
2016-10-25T02:29:47.900Z,99.99
2016-10-25T02:30:58.744Z,99.99
2016-10-25T02:32:09.537Z,99.99
2016-10-25T02:33:20.306Z,99.99
2016-10-25T02:34:31.173Z,99.99
2016-10-25T02:35:42.116Z,99.99
2016-10-25T02:36:52.914Z,99.99
2016-10-25T02:38:03.731Z,99.99
2016-10-25T02:39:14.539Z,99.99
2016-10-25T02:40:25.884Z,99.99
2016-10-25T02:41:36.622Z,99.99
2016-10-25T02:42:47.502Z,99.99
2016-10-25T02:43:58.319Z,99.99
2016-10-25T02:45:09.143Z,99.99
2016-10-25T02:46:19.971Z,99.99
2016-10-25T02:47:30.769Z,99.99
2016-10-25T02:48:41.588Z,99.99
2016-10-25T02:49:52.947Z,99.99
2016-10-25T02:51:03.744Z,99.99
2016-10-25T02:52:14.514Z,99.99
2016-10-25T02:53:25.384Z,99.99
2016-10-25T02:54:36.447Z,99.99
2016-10-25T02:55:47.211Z,99.99
2016-10-25T02:56:58.091Z,99.99
2016-10-25T02:58:08.919Z,99.99
2016-10-25T02:59:19.802Z,99.99
2016-10-25T03:00:30.544Z,99.99
2016-10-25T03:01:41.363Z,99.99
2016-10-25T03:02:52.291Z,99.99
2016-10-25T03:04:03.016Z,99.99
2016-10-25T03:05:13.848Z,99.99
2016-10-25T03:06:24.729Z,99.99
2016-10-25T03:07:35.498Z,99.99
2016-10-25T03:08:46.293Z,99.99
2016-10-25T03:09:57.044Z,99.99
2016-10-25T03:11:07.831Z,99.99
2016-10-25T03:12:18.583Z,99.99
2016-10-25T03:13:29.433Z,99.99
2016-10-25T03:14:40.193Z,99.99
2016-10-25T03:15:50.916Z,99.99
2016-10-25T03:17:01.760Z,99.99
2016-10-25T03:18:12.498Z,99.99
2016-10-25T03:19:23.334Z,99.99
2016-10-25T03:20:34.147Z,99.99
2016-10-25T03:21:44.955Z,99.99
2016-10-25T03:22:55.858Z,99.99
2016-10-25T03:24:06.645Z,99.99
2016-10-25T03:25:17.456Z,99.99
2016-10-25T03:26:29.443Z,99.99
2016-10-25T03:27:40.250Z,99.99
2016-10-25T03:28:51.074Z,99.99
2016-10-25T03:30:01.836Z,99.99
2016-10-25T03:31:12.672Z,99.99
2016-10-25T03:32:23.502Z,99.99
2016-10-25T03:33:34.293Z,99.99
2016-10-25T03:34:45.128Z,99.99
2016-10-25T03:35:55.986Z,99.99
2016-10-25T03:37:06.837Z,99.99
2016-10-25T03:38:17.545Z,99.99
2016-10-25T03:39:28.446Z,99.99
2016-10-25T03:40:39.301Z,99.99
2016-10-25T03:41:50.062Z,99.99
2016-10-25T03:43:00.884Z,99.99
2016-10-25T03:44:11.711Z,99.99
2016-10-25T03:45:22.451Z,99.99
2016-10-25T03:46:33.242Z,99.99
2016-10-25T03:47:43.985Z,99.99
2016-10-25T03:48:54.757Z,99.99
2016-10-25T03:50:05.469Z,99.99
2016-10-25T03:51:16.342Z,99.99
2016-10-25T03:52:27.192Z,99.99
2016-10-25T03:53:37.923Z,99.99
2016-10-25T03:54:48.673Z,99.99
2016-10-25T03:55:59.487Z,99.99
2016-10-25T03:57:10.305Z,99.99
2016-10-25T03:58:21.138Z,99.99
2016-10-25T03:59:32.979Z,99.99
2016-10-25T04:00:43.770Z,99.99
2016-10-25T04:01:54.562Z,99.99
2016-10-25T04:03:05.415Z,99.99
2016-10-25T04:04:16.181Z,99.99
2016-10-25T04:05:27.521Z,99.99
2016-10-25T04:06:38.319Z,99.99
2016-10-25T04:07:49.135Z,99.99
2016-10-25T04:08:59.952Z,99.99
2016-10-25T04:10:10.730Z,99.99
2016-10-25T04:11:21.510Z,99.99
2016-10-25T04:12:32.280Z,99.99
2016-10-25T04:13:43.037Z,99.99
2016-10-25T04:14:53.910Z,99.99
2016-10-25T04:16:04.788Z,99.99
2016-10-25T04:17:15.669Z,99.99
2016-10-25T04:18:26.947Z,99.99
2016-10-25T04:19:37.793Z,99.99
2016-10-25T04:20:48.551Z,99.99
2016-10-25T04:21:59.358Z,99.99
2016-10-25T04:23:10.672Z,99.99
2016-10-25T04:24:21.539Z,99.99
2016-10-25T04:25:32.358Z,99.99
2016-10-25T04:26:43.146Z,99.99
2016-10-25T04:27:54.371Z,99.99
2016-10-25T04:29:05.151Z,99.99
2016-10-25T04:30:15.940Z,99.99
2016-10-25T04:31:26.771Z,99.99
2016-10-25T04:32:37.552Z,99.99
2016-10-25T04:33:48.344Z,99.99
2016-10-25T04:34:59.181Z,99.99
2016-10-25T04:36:09.914Z,99.99
2016-10-25T04:37:21.252Z,99.99
2016-10-25T04:38:32.109Z,99.99
2016-10-25T04:39:42.860Z,99.99
2016-10-25T04:40:53.554Z,99.99
2016-10-25T04:42:04.310Z,99.99
2016-10-25T04:43:15.011Z,99.99
2016-10-25T04:44:25.732Z,99.99
2016-10-25T04:45:36.425Z,99.99
2016-10-25T04:46:47.645Z,99.99
2016-10-25T04:47:58.332Z,99.99
2016-10-25T04:49:09.027Z,99.99
2016-10-25T04:50:19.750Z,99.99
2016-10-25T04:51:30.483Z,99.99
2016-10-25T04:52:41.187Z,99.99
2016-10-25T04:53:51.981Z,99.99
2016-10-25T04:55:02.889Z,99.99
2016-10-25T04:56:14.139Z,99.99
2016-10-25T04:57:24.839Z,99.99
2016-10-25T04:58:35.558Z,99.99
2016-10-25T04:59:46.320Z,99.99
2016-10-25T05:00:57.024Z,99.99
2016-10-25T05:02:07.710Z,99.99
2016-10-25T05:03:18.424Z,99.99
2016-10-25T05:04:29.163Z,99.99
2016-10-25T05:05:39.899Z,99.99
2016-10-25T05:06:50.689Z,99.99
2016-10-25T05:08:01.374Z,99.99
2016-10-25T05:09:12.082Z,99.99
2016-10-25T05:10:22.810Z,99.99
2016-10-25T05:11:33.503Z,99.99
2016-10-25T05:12:44.235Z,99.99
2016-10-25T05:13:54.946Z,99.99
2016-10-25T05:15:05.736Z,99.99
2016-10-25T05:16:16.519Z,99.99
2016-10-25T05:17:27.222Z,99.99
2016-10-25T05:18:38.454Z,99.99
2016-10-25T05:19:49.171Z,99.99
2016-10-25T05:20:59.855Z,99.99
2016-10-25T05:22:10.559Z,99.99
2016-10-25T05:23:21.651Z,99.99
2016-10-25T05:24:32.373Z,99.99
2016-10-25T05:25:43.099Z,99.99
2016-10-25T05:26:53.813Z,99.99
2016-10-25T05:28:04.522Z,99.99
2016-10-25T05:29:15.256Z,99.99
2016-10-25T05:30:25.983Z,99.99
2016-10-25T05:31:36.699Z,99.99
2016-10-25T05:32:47.407Z,99.99
2016-10-25T05:33:58.115Z,99.99
2016-10-25T05:35:09.152Z,99.99
2016-10-25T05:36:19.864Z,99.99
2016-10-25T05:37:30.670Z,99.99
2016-10-25T05:38:41.377Z,99.99
2016-10-25T05:39:52.078Z,99.99
2016-10-25T05:41:02.811Z,99.99
2016-10-25T05:42:14.489Z,99.99
2016-10-25T05:43:25.208Z,99.99
2016-10-25T05:44:35.930Z,99.99
2016-10-25T05:45:46.629Z,99.99
2016-10-25T05:46:57.325Z,99.99
2016-10-25T05:48:08.017Z,99.99
2016-10-25T05:49:18.757Z,99.99
2016-10-25T05:50:29.486Z,99.99
2016-10-25T05:51:40.193Z,99.99
2016-10-25T05:52:50.906Z,99.99
2016-10-25T05:54:01.643Z,99.99
2016-10-25T05:55:12.330Z,99.99
2016-10-25T05:56:23.005Z,99.99
2016-10-25T05:57:33.712Z,99.99
2016-10-25T05:58:44.914Z,99.99
2016-10-25T05:59:55.613Z,99.99
2016-10-25T06:01:07.356Z,99.99
2016-10-25T06:02:18.075Z,99.99
2016-10-25T06:03:28.762Z,99.99
2016-10-25T06:04:39.453Z,99.99
2016-10-25T06:05:50.164Z,99.99
2016-10-25T06:07:00.892Z,99.99
2016-10-25T06:08:11.621Z,99.99
2016-10-25T06:09:22.843Z,99.99
2016-10-25T06:10:33.556Z,99.99
2016-10-25T06:11:44.430Z,99.99
2016-10-25T06:12:55.142Z,99.99
2016-10-25T06:14:05.871Z,99.99
2016-10-25T06:15:16.596Z,99.99
2016-10-25T06:16:27.313Z,99.99
2016-10-25T06:17:38.153Z,99.99
2016-10-25T06:18:49.081Z,99.99
2016-10-25T06:19:59.803Z,99.99
2016-10-25T06:21:10.603Z,99.99
2016-10-25T06:22:21.294Z,99.99
2016-10-25T06:23:32.006Z,99.99
2016-10-25T06:24:42.711Z,99.99
2016-10-25T06:25:53.530Z,99.99
2016-10-25T06:27:04.752Z,99.99
2016-10-25T06:28:15.493Z,99.99
2016-10-25T06:29:26.209Z,99.99
2016-10-25T06:30:36.901Z,99.99
2016-10-25T06:31:47.608Z,99.99
2016-10-25T06:32:58.535Z,99.99
2016-10-25T06:34:09.312Z,99.99
2016-10-25T06:35:20.031Z,99.99
2016-10-25T06:36:30.734Z,99.99
2016-10-25T06:37:41.471Z,99.99
2016-10-25T06:38:52.159Z,99.99
2016-10-25T06:40:03.069Z,99.99
2016-10-25T06:41:13.880Z,99.99
2016-10-25T06:42:24.600Z,99.99
2016-10-25T06:43:35.295Z,99.99
2016-10-25T06:44:46.016Z,99.99
2016-10-25T06:45:56.742Z,99.99
2016-10-25T06:47:07.462Z,99.99
2016-10-25T06:48:18.173Z,99.99
2016-10-25T06:49:28.879Z,99.99
2016-10-25T06:50:39.595Z,99.99
2016-10-25T06:51:50.354Z,99.99
2016-10-25T06:53:01.075Z,99.99
2016-10-25T06:54:11.814Z,99.99
2016-10-25T06:55:22.533Z,99.99
2016-10-25T06:56:33.328Z,99.99
2016-10-25T06:57:44.104Z,99.99
2016-10-25T06:58:54.879Z,99.99
2016-10-25T07:00:05.573Z,99.99
2016-10-25T07:01:16.278Z,99.99
2016-10-25T07:02:26.961Z,99.99
2016-10-25T07:03:37.678Z,99.99
2016-10-25T07:04:48.388Z,99.99
2016-10-25T07:05:59.096Z,99.99
2016-10-25T07:07:09.823Z,99.99
2016-10-25T07:08:21.482Z,99.99
2016-10-25T07:09:32.188Z,99.99
2016-10-25T07:10:42.890Z,99.99
2016-10-25T07:11:54.430Z,99.99
2016-10-25T07:13:05.182Z,99.99
2016-10-25T07:14:15.905Z,99.99
2016-10-25T07:15:26.624Z,99.99
2016-10-25T07:16:37.318Z,99.99
2016-10-25T07:17:48.037Z,99.99
2016-10-25T07:18:58.710Z,99.99
2016-10-25T07:20:10.020Z,99.99
2016-10-25T07:21:21.126Z,99.99
2016-10-25T07:22:31.842Z,99.99
2016-10-25T07:23:42.590Z,99.99
2016-10-25T07:24:53.829Z,99.99
2016-10-25T07:26:05.659Z,99.99
2016-10-25T07:27:16.376Z,99.99
2016-10-25T07:28:27.076Z,99.99
2016-10-25T07:29:37.787Z,99.99
2016-10-25T07:30:48.682Z,99.99
2016-10-25T07:31:59.416Z,99.99
2016-10-25T07:33:10.122Z,99.99
2016-10-25T07:34:20.824Z,99.99
2016-10-25T07:35:31.538Z,99.99
2016-10-25T07:36:42.380Z,99.99
2016-10-25T07:37:53.156Z,99.99
2016-10-25T07:39:03.934Z,99.99
2016-10-25T07:40:14.654Z,99.99
2016-10-25T07:41:26.002Z,99.99
2016-10-25T07:42:36.905Z,99.99
2016-10-25T07:43:47.604Z,99.99
2016-10-25T07:44:58.324Z,99.99
2016-10-25T07:46:09.058Z,99.99
2016-10-25T07:47:20.302Z,99.99
2016-10-25T07:48:31.553Z,99.99
2016-10-25T07:49:42.285Z,99.99
2016-10-25T07:50:53.014Z,99.99
2016-10-25T07:52:04.280Z,99.99
2016-10-25T07:53:14.997Z,99.99
2016-10-25T07:54:25.711Z,99.99
2016-10-25T07:55:37.276Z,99.99
2016-10-25T07:56:47.986Z,99.99
2016-10-25T07:57:58.797Z,99.99
2016-10-25T07:59:09.525Z,99.99
2016-10-25T08:00:20.249Z,99.99
2016-10-25T08:01:30.952Z,99.99
2016-10-25T08:02:41.749Z,99.99
2016-10-25T08:03:52.485Z,99.99
2016-10-25T08:05:03.181Z,99.99
2016-10-25T08:06:14.196Z,99.99
2016-10-25T08:07:24.894Z,99.99
2016-10-25T08:08:36.154Z,99.99
2016-10-25T08:09:46.905Z,99.99
2016-10-25T08:10:58.123Z,99.99
2016-10-25T08:12:08.829Z,99.99
2016-10-25T08:13:19.580Z,99.99
2016-10-25T08:14:31.078Z,99.99
2016-10-25T08:15:41.781Z,99.99
2016-10-25T08:16:52.467Z,99.99
2016-10-25T08:18:03.175Z,99.99
2016-10-25T08:19:13.884Z,99.99
2016-10-25T08:20:24.595Z,99.99
2016-10-25T08:21:35.323Z,99.99
2016-10-25T08:22:46.031Z,99.99
2016-10-25T08:23:56.753Z,99.99
2016-10-25T08:25:08.029Z,99.99
2016-10-25T08:26:19.257Z,99.99
2016-10-25T08:27:29.994Z,99.99
2016-10-25T08:28:40.717Z,99.99
2016-10-25T08:29:51.417Z,99.99
2016-10-25T08:31:02.141Z,99.99
2016-10-25T08:32:13.395Z,99.99
2016-10-25T08:33:24.308Z,99.99
2016-10-25T08:34:35.047Z,99.99
2016-10-25T08:35:45.773Z,99.99
2016-10-25T08:36:56.477Z,99.99
2016-10-25T08:38:07.429Z,99.99
2016-10-25T08:39:18.168Z,99.99
2016-10-25T08:40:28.882Z,99.99
2016-10-25T08:41:39.576Z,99.99
2016-10-25T08:42:50.307Z,99.99
2016-10-25T08:44:01.004Z,99.99
2016-10-25T08:45:11.714Z,99.99
2016-10-25T08:46:22.405Z,99.99
2016-10-25T08:47:33.111Z,99.99
2016-10-25T08:48:43.835Z,99.99
2016-10-25T08:49:54.545Z,99.99
2016-10-25T08:51:05.241Z,99.99
2016-10-25T08:52:16.033Z,99.99
2016-10-25T08:53:26.727Z,99.99
2016-10-25T08:54:37.442Z,99.99
2016-10-25T08:55:48.155Z,99.99
2016-10-25T08:56:58.881Z,99.99
2016-10-25T08:58:09.635Z,99.99
2016-10-25T08:59:21.206Z,99.99
2016-10-25T09:00:31.907Z,99.99
2016-10-25T09:01:42.684Z,99.99
2016-10-25T09:02:53.382Z,99.99
2016-10-25T09:04:04.098Z,99.99
2016-10-25T09:05:14.971Z,99.99
2016-10-25T09:06:25.685Z,99.99
2016-10-25T09:07:36.401Z,99.99
2016-10-25T09:08:47.097Z,99.99
2016-10-25T09:09:57.817Z,99.99
2016-10-25T09:11:08.509Z,99.99
2016-10-25T09:12:19.239Z,99.99
2016-10-25T09:13:30.077Z,99.99
2016-10-25T09:14:41.025Z,99.99
2016-10-25T09:15:51.726Z,99.99
2016-10-25T09:17:02.447Z,99.99
2016-10-25T09:18:13.672Z,99.99
2016-10-25T09:19:24.413Z,99.99
2016-10-25T09:20:35.155Z,99.99
2016-10-25T09:21:45.877Z,99.99
2016-10-25T09:22:56.564Z,99.99
2016-10-25T09:24:07.261Z,99.99
2016-10-25T09:25:18.000Z,99.99
2016-10-25T09:26:29.407Z,99.99
2016-10-25T09:27:40.206Z,99.99
2016-10-25T09:28:50.880Z,99.99
2016-10-25T09:30:01.597Z,99.99
2016-10-25T09:31:12.286Z,99.99
2016-10-25T09:32:23.191Z,99.99
2016-10-25T09:33:34.938Z,99.99
2016-10-25T09:34:45.641Z,99.99
2016-10-25T09:35:56.875Z,99.99
2016-10-25T09:37:07.638Z,99.99
2016-10-25T09:38:18.898Z,99.99
2016-10-25T09:39:29.639Z,99.99
2016-10-25T09:40:40.345Z,99.99
2016-10-25T09:41:51.061Z,99.99
2016-10-25T09:43:01.756Z,99.99
2016-10-25T09:44:12.483Z,99.99
2016-10-25T09:45:23.210Z,99.99
2016-10-25T09:46:33.938Z,99.99
2016-10-25T09:47:45.738Z,99.99
2016-10-25T09:48:57.242Z,99.99
2016-10-25T09:50:08.035Z,99.99
2016-10-25T09:51:18.831Z,99.99
2016-10-25T09:52:29.586Z,99.99
2016-10-25T09:53:40.305Z,99.99
2016-10-25T09:54:51.007Z,99.99
2016-10-25T09:56:01.742Z,99.99
2016-10-25T09:57:12.440Z,99.99
2016-10-25T09:58:23.124Z,99.99
2016-10-25T09:59:33.830Z,99.99
2016-10-25T10:00:44.558Z,99.99
2016-10-25T10:01:55.245Z,99.99
2016-10-25T10:03:06.464Z,99.99
2016-10-25T10:04:17.198Z,99.99
2016-10-25T10:05:27.933Z,99.99
2016-10-25T10:06:38.657Z,99.99
2016-10-25T10:07:49.385Z,99.99
2016-10-25T10:09:00.113Z,99.99
2016-10-25T10:10:10.824Z,99.99
2016-10-25T10:11:21.590Z,99.99
2016-10-25T10:12:32.337Z,99.99
2016-10-25T10:13:43.075Z,99.99
2016-10-25T10:14:53.783Z,99.99
2016-10-25T10:16:04.515Z,99.99
2016-10-25T10:17:15.306Z,99.99
2016-10-25T10:18:26.022Z,99.99
2016-10-25T10:19:37.235Z,99.99
2016-10-25T10:20:47.948Z,99.99
2016-10-25T10:21:58.654Z,99.99
2016-10-25T10:23:09.878Z,99.99
2016-10-25T10:24:20.613Z,99.99
2016-10-25T10:25:31.307Z,99.99
2016-10-25T10:26:42.044Z,99.99
2016-10-25T10:27:52.741Z,99.99
2016-10-25T10:29:03.456Z,99.99
2016-10-25T10:30:14.182Z,99.99
2016-10-25T10:31:24.892Z,99.99
2016-10-25T10:32:35.628Z,99.99
2016-10-25T10:33:46.338Z,99.99
2016-10-25T10:34:57.031Z,99.99
2016-10-25T10:36:07.855Z,99.99
2016-10-25T10:37:18.583Z,99.99
2016-10-25T10:38:29.315Z,99.21
2016-10-25T10:39:40.042Z,99.26
2016-10-25T10:40:50.731Z,97.33
2016-10-25T10:42:01.436Z,93.37
2016-10-25T10:43:12.162Z,89.74
2016-10-25T10:44:22.990Z,90.61
2016-10-25T10:45:33.743Z,89.01
2016-10-25T10:46:44.493Z,93.18
2016-10-25T10:47:55.185Z,95.4
2016-10-25T10:49:05.918Z,96.7
2016-10-25T10:50:16.625Z,96.56
2016-10-25T10:51:27.389Z,97.04
2016-10-25T10:52:38.080Z,99.11
2016-10-25T10:53:48.876Z,99.5
2016-10-25T10:55:00.223Z,99.99
2016-10-25T10:56:11.480Z,99.99
2016-10-25T10:57:22.212Z,99.98
2016-10-25T10:58:32.916Z,99.99
2016-10-25T10:59:43.646Z,99.99
2016-10-25T11:00:54.373Z,99.06
2016-10-25T11:02:05.119Z,99.99
2016-10-25T11:03:15.819Z,99.99
2016-10-25T11:04:26.524Z,99.99
2016-10-25T11:05:37.273Z,99.99
2016-10-25T11:06:50.122Z,99.99
2016-10-25T11:08:00.878Z,99.98
2016-10-25T11:09:11.585Z,99.99
2016-10-25T11:10:22.318Z,99.99
2016-10-25T11:11:33.024Z,99.99
2016-10-25T11:12:43.721Z,99.99
2016-10-25T11:13:54.450Z,99.99
2016-10-25T11:15:05.690Z,99.99
2016-10-25T11:16:16.967Z,99.99
2016-10-25T11:17:27.665Z,99.99
2016-10-25T11:18:38.395Z,99.99
2016-10-25T11:19:49.110Z,99.99
2016-10-25T11:20:59.845Z,99.99
2016-10-25T11:22:10.627Z,99.99
2016-10-25T11:23:21.370Z,99.99
2016-10-25T11:24:32.838Z,99.99
2016-10-25T11:25:45.040Z,99.99
2016-10-25T11:26:56.348Z,99.99
2016-10-25T11:28:07.647Z,99.59
2016-10-25T11:29:18.369Z,99.21
2016-10-25T11:30:29.078Z,98.82
2016-10-25T11:31:39.791Z,99.4
2016-10-25T11:32:50.629Z,98.77
2016-10-25T11:34:01.346Z,97.91
2016-10-25T11:35:12.098Z,99.07
2016-10-25T11:36:22.815Z,98
2016-10-25T11:37:33.541Z,96.75
2016-10-25T11:38:44.328Z,97.57
2016-10-25T11:39:55.051Z,97.76
2016-10-25T11:41:05.762Z,97.67
2016-10-25T11:42:17.002Z,97.19
2016-10-25T11:43:28.051Z,97.62
2016-10-25T11:44:38.977Z,96.75
2016-10-25T11:45:49.666Z,97.72
2016-10-25T11:47:00.356Z,97.04
2016-10-25T11:48:11.137Z,95.4
2016-10-25T11:49:22.249Z,96.37
2016-10-25T11:50:32.983Z,94.92
2016-10-25T11:51:43.714Z,95.59
2016-10-25T11:52:54.558Z,94.73
2016-10-25T11:54:05.285Z,95.31
2016-10-25T11:55:16.005Z,94.73
2016-10-25T11:56:26.715Z,94.54
2016-10-25T11:57:37.413Z,94.06
2016-10-25T11:58:48.131Z,93.76
2016-10-25T11:59:58.856Z,91.93
2016-10-25T12:01:09.556Z,91.06
2016-10-25T12:02:20.268Z,90.68
2016-10-25T12:03:30.958Z,91.06
2016-10-25T12:04:41.656Z,92.41
2016-10-25T12:05:52.876Z,91.16
2016-10-25T12:07:03.626Z,91.02
2016-10-25T12:08:14.324Z,90.44
2016-10-25T12:09:25.063Z,88.99
2016-10-25T12:10:35.794Z,87.45
2016-10-25T12:11:46.553Z,88.22
2016-10-25T12:12:57.263Z,89.09
2016-10-25T12:14:08.511Z,89.18
2016-10-25T12:15:19.211Z,89.57
2016-10-25T12:16:29.944Z,90.05
2016-10-25T12:17:40.667Z,85.71
2016-10-25T12:18:51.361Z,88.02
2016-10-25T12:20:02.072Z,86.39
2016-10-25T12:21:13.305Z,86.29
2016-10-25T12:22:23.998Z,87.74
2016-10-25T12:23:34.704Z,86.29
2016-10-25T12:24:45.414Z,85.03
2016-10-25T12:25:56.142Z,85.33
2016-10-25T12:27:06.866Z,85.91
2016-10-25T12:28:18.110Z,84.07
2016-10-25T12:29:28.823Z,84.46
2016-10-25T12:30:39.520Z,83.88
2016-10-25T12:31:50.801Z,82.72
2016-10-25T12:33:01.527Z,81.95
2016-10-25T12:34:12.225Z,82.82
2016-10-25T12:35:22.965Z,81.95
2016-10-25T12:36:33.688Z,82.68
2016-10-25T12:37:44.434Z,85.28
2016-10-25T12:38:55.134Z,86.15
2016-10-25T12:40:05.842Z,86.63
2016-10-25T12:41:16.560Z,87.98
2016-10-25T12:42:27.793Z,89.14
2016-10-25T12:43:38.504Z,90
2016-10-25T12:44:49.189Z,89.04
2016-10-25T12:45:59.898Z,88.9
2016-10-25T12:47:10.597Z,91.31
2016-10-25T12:48:21.296Z,90.16
2016-10-25T12:49:31.994Z,91.46
2016-10-25T12:50:42.731Z,90.97
2016-10-25T12:51:53.457Z,91.55
2016-10-25T12:53:04.175Z,92.03
2016-10-25T12:54:16.807Z,93
2016-10-25T12:55:27.491Z,92.9
2016-10-25T12:56:38.201Z,92.42
2016-10-25T12:57:48.956Z,91.17
2016-10-25T12:59:00.706Z,93.67
2016-10-25T13:00:11.443Z,93.19
2016-10-25T13:01:22.196Z,91.6
2016-10-25T13:02:32.919Z,91.5
2016-10-25T13:03:43.664Z,93.57
2016-10-25T13:04:54.373Z,92.13
2016-10-25T13:06:05.101Z,90.88
2016-10-25T13:07:15.809Z,90.59
2016-10-25T13:08:26.526Z,92.8
2016-10-25T13:09:37.226Z,94.06
2016-10-25T13:10:48.006Z,96.03
2016-10-25T13:11:58.786Z,96.99
2016-10-25T13:13:09.732Z,95.84
2016-10-25T13:14:20.445Z,96.17
2016-10-25T13:15:31.161Z,97.24
2016-10-25T13:16:41.879Z,95.06
2016-10-25T13:17:52.588Z,89.95
2016-10-25T13:19:03.296Z,92.65
2016-10-25T13:20:13.985Z,92.36
2016-10-25T13:21:24.708Z,92.75
2016-10-25T13:22:35.429Z,93.13
2016-10-25T13:23:46.138Z,88.84
2016-10-25T13:24:57.410Z,90.53
2016-10-25T13:26:08.111Z,91.69
2016-10-25T13:27:18.819Z,92.08
2016-10-25T13:28:29.524Z,92.46
2016-10-25T13:29:40.260Z,90.82
2016-10-25T13:30:50.963Z,91.6
2016-10-25T13:32:01.676Z,91.4
2016-10-25T13:33:12.897Z,91.25
2016-10-25T13:34:23.635Z,90.19
2016-10-25T13:35:34.365Z,90.29
2016-10-25T13:36:45.182Z,91.78
2016-10-25T13:37:55.894Z,91.25
2016-10-25T13:39:06.626Z,90.29
2016-10-25T13:40:17.376Z,90.09
2016-10-25T13:41:28.129Z,90.48
2016-10-25T13:42:38.867Z,87.97
2016-10-25T13:43:49.632Z,90.96
2016-10-25T13:45:00.330Z,90.82
2016-10-25T13:46:11.060Z,88.51
2016-10-25T13:47:21.749Z,90.09
2016-10-25T13:48:32.460Z,90.53
2016-10-25T13:49:43.166Z,91.11
2016-10-25T13:50:53.876Z,89.09
2016-10-25T13:52:05.099Z,87.93
2016-10-25T13:53:16.324Z,90.24
2016-10-25T13:54:27.030Z,89.51
2016-10-25T13:55:37.732Z,87.49
2016-10-25T13:56:48.483Z,88.07
2016-10-25T13:57:59.203Z,89.18
2016-10-25T13:59:10.463Z,87.2
2016-10-25T14:00:21.227Z,87.78
2016-10-25T14:01:31.940Z,85.17
2016-10-25T14:02:42.673Z,85.27
2016-10-25T14:03:53.393Z,86.33
2016-10-25T14:05:04.137Z,85.6
2016-10-25T14:06:14.867Z,85.31
2016-10-25T14:07:25.589Z,83.42
2016-10-25T14:08:36.326Z,83.62
2016-10-25T14:09:47.028Z,83.23
2016-10-25T14:10:57.753Z,82.94
2016-10-25T14:12:08.544Z,82.89
2016-10-25T14:13:19.252Z,82.21
2016-10-25T14:14:29.995Z,81.82
2016-10-25T14:15:40.702Z,80.51
2016-10-25T14:16:51.427Z,79.97
2016-10-25T14:18:02.145Z,78.66
2016-10-25T14:19:12.842Z,77.53
2016-10-25T14:20:23.547Z,77.82
2016-10-25T14:21:34.279Z,78.94
2016-10-25T14:22:45.208Z,77.98
2016-10-25T14:23:55.973Z,79
2016-10-25T14:25:06.680Z,78.38
2016-10-25T14:26:17.401Z,80.66
2016-10-25T14:27:28.095Z,81.49
2016-10-25T14:28:38.808Z,84.54
2016-10-25T14:29:49.547Z,84.35
2016-10-25T14:31:00.760Z,85.22
2016-10-25T14:32:11.573Z,83.96
2016-10-25T14:33:22.388Z,84.25
2016-10-25T14:34:33.597Z,85.12
2016-10-25T14:35:44.347Z,82.86
2016-10-25T14:36:55.081Z,83.44
2016-10-25T14:38:06.740Z,84.89
2016-10-25T14:39:18.110Z,84.89
2016-10-25T14:40:28.842Z,84.5
2016-10-25T14:41:39.572Z,83.44
2016-10-25T14:42:50.318Z,84.11
2016-10-25T14:44:01.022Z,84.94
2016-10-25T14:45:11.757Z,85.27
2016-10-25T14:46:22.594Z,84.98
2016-10-25T14:47:33.319Z,83.73
2016-10-25T14:48:44.045Z,85.27
2016-10-25T14:49:54.784Z,84.11
2016-10-25T14:51:05.499Z,85.85
2016-10-25T14:52:16.245Z,85.37
2016-10-25T14:53:26.948Z,85.7
2016-10-25T14:54:37.671Z,85.12
2016-10-25T14:55:48.402Z,86.33
2016-10-25T14:56:59.078Z,85.5
2016-10-25T14:58:09.837Z,86.14
2016-10-25T14:59:20.551Z,86.43
2016-10-25T15:00:31.272Z,86.82
2016-10-25T15:01:42.037Z,89.32
2016-10-25T15:02:52.760Z,88.36
2016-10-25T15:04:04.301Z,88.84
2016-10-25T15:05:14.992Z,87.68
2016-10-25T15:06:25.711Z,86.82
2016-10-25T15:07:36.613Z,87.49
2016-10-25T15:08:47.795Z,88.11
2016-10-25T15:09:58.967Z,88.89
2016-10-25T15:11:10.138Z,87.05
2016-10-25T15:12:21.333Z,88.84
2016-10-25T15:13:32.488Z,87.97